TFM - Tactical Decision Aid
ID: Runway Winds: CIG/VIS Threshold:

KMEI - Meridian/Key Fld, MS, US

Updated at: 1154 UTC 10 Jul 2020
Latest TAF at: 1120 UTC 10 Jul 2020

TAF Board

Time1058Z 10/12Z 10/13Z 10/14Z 10/15Z 10/16Z 10/17Z 10/18Z 10/19Z 10/20Z 10/21Z 10/22Z 10/23Z 11/00Z>>
Type OBS PRVL PRVL PRVL PRVL PRVL PRVL PRVL PRVL PRVL PRVL PRVL PRVL PRVL
VIS 9 >6 >6 >6 >6 >6 >6 >6 >6 >6 >6 >6 >6 >6
CIG 37 40 40 40 40 40 40 40 40 -- -- -- -- --
Cover BKN BKN BKN BKN BKN BKN BKN BKN BKN SCT SCT SCT SCT SCT
FltCat VFR VFR VFR VFR VFR VFR VFR VFR VFR VFR VFR VFR VFR VFR
WX -- VCSH VCSH VCSH VCSH -SHRA VCTS -SHRA VCTS -SHRA VCTS -SHRA VCTS -- -- -- -- --
WDir 180 200 200 200 200 270 270 270 270 310 310 310 310 310
WSpd 4 5 5 5 5 8 8 8 8 11 11 11 11 11
WGst -- -- -- -- -- -- -- -- -- -- -- -- -- --

TDA Impact Legend

  None Marginal Slight Moderate High
Visibility (sm) >5 3≤X≤5 2≤X<3 0.5≤X<2 <0.5
Ceiling (100 ft) >30 10≤X≤30 6≤X<10 2≤X<6 <2
Wind Speed (kt) <15 15≤X<25 25≤X<30 ≥30
Wind Gust (kt) <15 15≤X<25 25≤X<35 ≥35
Weather No Wx Reported VCTS -TS,-FZRA TS,FZRA +TS,+FZRA
TAF
KMEI 101120Z 1012/1112 20005KT P6SM VCSH BKN040
  FM101600 27008KT P6SM -SHRA VCTS BKN040CB
  FM102000 31011KT P6SM SCT050


METAR
KMEI 101058Z 18004KT 9SM BKN037 BKN047 24/23 A2998 RMK AO2 LTG DSNT NE AND S AND SW RAB06E21 SLP150 P0001 T02390228
KMEI 101028Z AUTO 17003KT 10SM VCTS FEW032 24/23 A2998 RMK AO2 LTG DSNT NE AND S AND SW RAB06E21 P0001 T02390228
KMEI 100958Z AUTO 19004KT 10SM SCT033 SCT042 BKN049 24/23 A2996 RMK AO2 LTG DSNT S-W SLP143 T02390228
KMEI 100858Z AUTO 00000KT 8SM FEW041 23/22 A2996 RMK AO2 LTG DSNT SW SLP140 T02330222 58004

Radar Display
Forecast Discussion